createdAt,value
2017-11-15T00:00:29.385Z,988.43
2017-11-15T00:01:29.423Z,988.40
2017-11-15T00:02:29.459Z,988.43
2017-11-15T00:03:50.515Z,988.43
2017-11-15T00:04:29.539Z,988.50
2017-11-15T00:05:29.576Z,988.49
2017-11-15T00:06:29.615Z,988.47
2017-11-15T00:07:29.663Z,988.51
2017-11-15T00:08:29.704Z,988.51
2017-11-15T00:09:50.758Z,988.50
2017-11-15T00:10:29.777Z,988.49
2017-11-15T00:11:29.817Z,988.55
2017-11-15T00:12:29.855Z,988.50
2017-11-15T00:13:29.894Z,988.50
2017-11-15T00:14:29.935Z,988.58
2017-11-15T00:15:50.995Z,988.52
2017-11-15T00:16:30.017Z,988.53
2017-11-15T00:17:30.053Z,988.50
2017-11-15T00:18:30.101Z,988.48
2017-11-15T00:19:30.146Z,988.56
2017-11-15T00:20:30.175Z,988.56
2017-11-15T00:21:51.240Z,988.56
2017-11-15T00:22:30.265Z,988.59
2017-11-15T00:23:30.301Z,988.59
2017-11-15T00:24:30.336Z,988.60
2017-11-15T00:25:30.376Z,988.64
2017-11-15T00:26:30.424Z,988.59
2017-11-15T00:27:51.484Z,988.58
2017-11-15T00:28:30.500Z,988.57
2017-11-15T00:29:30.541Z,988.59
2017-11-15T00:30:30.577Z,988.58
2017-11-15T00:31:30.618Z,988.57
2017-11-15T00:32:30.658Z,988.54
2017-11-15T00:33:51.724Z,988.57
2017-11-15T00:34:30.742Z,988.55
2017-11-15T00:35:30.783Z,988.55
2017-11-15T00:36:30.819Z,988.53
2017-11-15T00:37:30.863Z,988.51
2017-11-15T00:38:30.907Z,988.52
2017-11-15T00:39:51.964Z,988.51
2017-11-15T00:40:30.984Z,988.53
2017-11-15T00:41:31.021Z,988.54
2017-11-15T00:42:31.058Z,988.55
2017-11-15T00:43:31.103Z,988.57
2017-11-15T00:44:31.142Z,988.57
2017-11-15T00:45:52.204Z,988.57
2017-11-15T00:46:31.224Z,988.57
2017-11-15T00:47:31.258Z,988.63
2017-11-15T00:48:31.307Z,988.61
2017-11-15T00:49:31.348Z,988.58
2017-11-15T00:50:31.385Z,988.65
2017-11-15T00:51:52.443Z,988.63
2017-11-15T00:52:31.482Z,988.63
2017-11-15T00:53:31.502Z,988.66
2017-11-15T00:54:31.549Z,988.67
2017-11-15T00:55:31.582Z,988.67
2017-11-15T00:56:31.623Z,988.65
2017-11-15T00:57:52.686Z,988.68
2017-11-15T00:58:31.701Z,988.72
2017-11-15T00:59:31.749Z,988.71
2017-11-15T01:00:31.788Z,988.74
2017-11-15T01:01:31.822Z,988.71
2017-11-15T01:02:31.869Z,988.74
2017-11-15T01:03:52.928Z,988.74
2017-11-15T01:04:31.950Z,988.74
2017-11-15T01:05:31.983Z,988.75
2017-11-15T01:06:32.028Z,988.77
2017-11-15T01:07:32.064Z,988.72
2017-11-15T01:08:32.101Z,988.72
2017-11-15T01:09:53.173Z,988.73
2017-11-15T01:10:32.190Z,988.71
2017-11-15T01:11:32.227Z,988.71
2017-11-15T01:12:32.270Z,988.72
2017-11-15T01:13:32.313Z,988.70
2017-11-15T01:14:32.345Z,988.74
2017-11-15T01:15:53.406Z,988.77
2017-11-15T01:16:32.432Z,988.70
2017-11-15T01:17:32.481Z,988.70
2017-11-15T01:18:32.509Z,988.72
2017-11-15T01:19:32.547Z,988.67
2017-11-15T01:20:32.584Z,988.69
2017-11-15T01:21:53.654Z,988.64
2017-11-15T01:22:32.665Z,988.64
2017-11-15T01:23:32.707Z,988.67
2017-11-15T01:24:32.753Z,988.64
2017-11-15T01:25:32.789Z,988.68
2017-11-15T01:26:32.832Z,988.64
2017-11-15T01:27:53.893Z,988.66
2017-11-15T01:28:32.906Z,988.70
2017-11-15T01:29:32.948Z,988.63
2017-11-15T01:30:32.987Z,988.67
2017-11-15T01:31:33.029Z,988.67
2017-11-15T01:32:33.068Z,988.67
2017-11-15T01:33:54.146Z,988.61
2017-11-15T01:34:33.152Z,988.64
2017-11-15T01:35:33.195Z,988.62
2017-11-15T01:36:33.225Z,988.65
2017-11-15T01:37:33.269Z,988.68
2017-11-15T01:38:33.310Z,988.65
2017-11-15T01:39:54.377Z,988.68
2017-11-15T01:40:33.386Z,988.64
2017-11-15T01:41:33.434Z,988.65
2017-11-15T01:42:33.471Z,988.63
2017-11-15T01:43:33.508Z,988.64
2017-11-15T01:44:33.551Z,988.57
2017-11-15T01:45:54.613Z,988.66
2017-11-15T01:46:33.633Z,988.66
2017-11-15T01:47:33.670Z,988.63
2017-11-15T01:48:33.713Z,988.65
2017-11-15T01:49:33.753Z,988.63
2017-11-15T01:50:33.790Z,988.58
2017-11-15T01:51:54.860Z,988.62
2017-11-15T01:52:33.872Z,988.60
2017-11-15T01:53:33.913Z,988.62
2017-11-15T01:54:33.950Z,988.64
2017-11-15T01:55:33.997Z,988.64
2017-11-15T01:56:34.036Z,988.69
2017-11-15T01:57:55.096Z,988.68
2017-11-15T01:58:34.116Z,988.67
2017-11-15T01:59:34.163Z,988.68
2017-11-15T02:00:34.197Z,988.65
2017-11-15T02:01:34.233Z,988.65
2017-11-15T02:02:34.279Z,988.68
2017-11-15T02:03:55.344Z,988.69
2017-11-15T02:04:34.357Z,988.65
2017-11-15T02:05:34.395Z,988.62
2017-11-15T02:06:34.453Z,988.60
2017-11-15T02:07:34.481Z,988.62
2017-11-15T02:08:34.561Z,988.61
2017-11-15T02:09:55.577Z,988.56
2017-11-15T02:10:34.594Z,988.55
2017-11-15T02:11:34.635Z,988.53
2017-11-15T02:12:34.674Z,988.52
2017-11-15T02:13:34.733Z,988.53
2017-11-15T02:14:34.761Z,988.47
2017-11-15T02:15:55.819Z,988.51
2017-11-15T02:16:34.884Z,988.52
2017-11-15T02:17:34.878Z,988.51
2017-11-15T02:18:34.918Z,988.52
2017-11-15T02:19:34.959Z,988.52
2017-11-15T02:20:35.003Z,988.46
2017-11-15T02:21:56.061Z,988.49
2017-11-15T02:22:35.090Z,988.46
2017-11-15T02:23:35.115Z,988.46
2017-11-15T02:24:35.158Z,988.47
2017-11-15T02:25:35.198Z,988.47
2017-11-15T02:26:35.248Z,988.45
2017-11-15T02:27:56.302Z,988.48
2017-11-15T02:28:35.316Z,988.48
2017-11-15T02:29:35.359Z,988.46
2017-11-15T02:30:35.401Z,988.45
2017-11-15T02:31:35.439Z,988.45
2017-11-15T02:32:35.482Z,988.46
2017-11-15T02:33:56.545Z,988.39
2017-11-15T02:34:35.562Z,988.42
2017-11-15T02:35:35.602Z,988.41
2017-11-15T02:36:35.639Z,988.40
2017-11-15T02:37:35.757Z,988.40
2017-11-15T02:38:35.719Z,988.43
2017-11-15T02:39:56.780Z,988.39
2017-11-15T02:40:35.804Z,988.37
2017-11-15T02:41:35.842Z,988.41
2017-11-15T02:42:35.884Z,988.38
2017-11-15T02:43:35.930Z,988.38
2017-11-15T02:44:35.967Z,988.36
2017-11-15T02:45:57.034Z,988.37
2017-11-15T02:46:36.046Z,988.40
2017-11-15T02:47:36.084Z,988.35
2017-11-15T02:48:36.124Z,988.38
2017-11-15T02:49:36.161Z,988.39
2017-11-15T02:50:36.276Z,988.38
2017-11-15T02:51:57.263Z,988.38
2017-11-15T02:52:36.290Z,988.38
2017-11-15T02:53:36.324Z,988.42
2017-11-15T02:54:36.364Z,988.45
2017-11-15T02:55:36.440Z,988.47
2017-11-15T02:56:36.444Z,988.47
2017-11-15T02:57:57.517Z,988.44
2017-11-15T02:58:36.528Z,988.46
2017-11-15T02:59:36.567Z,988.45
2017-11-15T03:00:36.606Z,988.42
2017-11-15T03:01:36.651Z,988.43
2017-11-15T03:02:36.693Z,988.43
2017-11-15T03:03:57.747Z,988.39
2017-11-15T03:04:36.779Z,988.46
2017-11-15T03:05:36.811Z,988.36
2017-11-15T03:06:36.849Z,988.43
2017-11-15T03:07:36.886Z,988.39
2017-11-15T03:08:36.934Z,988.39
2017-11-15T03:09:57.992Z,988.38
2017-11-15T03:10:37.012Z,988.41
2017-11-15T03:11:37.049Z,988.36
2017-11-15T03:12:37.101Z,988.38
2017-11-15T03:13:37.130Z,988.38
2017-11-15T03:14:37.169Z,988.39
2017-11-15T03:15:58.230Z,988.40
2017-11-15T03:16:37.254Z,988.32
2017-11-15T03:17:37.290Z,988.41
2017-11-15T03:18:37.330Z,988.37
2017-11-15T03:19:37.377Z,988.41
2017-11-15T03:20:37.417Z,988.43
2017-11-15T03:21:58.474Z,988.41
2017-11-15T03:22:37.494Z,988.40
2017-11-15T03:23:37.539Z,988.40
2017-11-15T03:24:37.577Z,988.41
2017-11-15T03:25:37.614Z,988.38
2017-11-15T03:26:37.657Z,988.39
2017-11-15T03:27:58.715Z,988.39
2017-11-15T03:28:37.732Z,988.38
2017-11-15T03:29:37.776Z,988.35
2017-11-15T03:30:37.816Z,988.41
2017-11-15T03:31:37.858Z,988.40
2017-11-15T03:32:37.891Z,988.38
2017-11-15T03:33:58.968Z,988.35
2017-11-15T03:34:37.974Z,988.38
2017-11-15T03:35:38.010Z,988.36
2017-11-15T03:36:38.058Z,988.39
2017-11-15T03:37:38.094Z,988.40
2017-11-15T03:38:38.135Z,988.38
2017-11-15T03:39:59.203Z,988.41
2017-11-15T03:40:38.223Z,988.45
2017-11-15T03:41:38.268Z,988.40
2017-11-15T03:42:38.300Z,988.43
2017-11-15T03:43:38.334Z,988.39
2017-11-15T03:44:38.376Z,988.44
2017-11-15T03:45:59.443Z,988.45
2017-11-15T03:46:38.457Z,988.48
2017-11-15T03:47:38.499Z,988.43
2017-11-15T03:48:38.537Z,988.50
2017-11-15T03:49:38.576Z,988.51
2017-11-15T03:50:38.615Z,988.49
2017-11-15T03:51:59.680Z,988.49
2017-11-15T03:52:38.698Z,988.50
2017-11-15T03:53:38.743Z,988.50
2017-11-15T03:54:38.779Z,988.54
2017-11-15T03:55:38.813Z,988.50
2017-11-15T03:56:38.857Z,988.51
2017-11-15T03:57:59.929Z,988.52
2017-11-15T03:58:38.938Z,988.45
2017-11-15T03:59:38.981Z,988.44
2017-11-15T04:00:39.016Z,988.43
2017-11-15T04:01:39.059Z,988.45
2017-11-15T04:02:39.103Z,988.48
2017-11-15T04:04:00.160Z,988.44
2017-11-15T04:04:39.181Z,988.41
2017-11-15T04:05:39.225Z,988.45
2017-11-15T04:06:39.266Z,988.48
2017-11-15T04:07:39.307Z,988.46
2017-11-15T04:08:39.346Z,988.50
2017-11-15T04:10:00.424Z,988.50
2017-11-15T04:10:39.424Z,988.53
2017-11-15T04:11:39.462Z,988.53
2017-11-15T04:12:39.500Z,988.53
2017-11-15T04:13:39.545Z,988.53
2017-11-15T04:14:39.585Z,988.51
2017-11-15T04:16:00.652Z,988.50
2017-11-15T04:16:39.664Z,988.52
2017-11-15T04:17:39.703Z,988.52
2017-11-15T04:18:39.747Z,988.52
2017-11-15T04:19:39.788Z,988.53
2017-11-15T04:20:39.829Z,988.52
2017-11-15T04:22:00.889Z,988.51
2017-11-15T04:22:39.910Z,988.47
2017-11-15T04:23:39.946Z,988.51
2017-11-15T04:24:39.988Z,988.52
2017-11-15T04:25:40.033Z,988.48
2017-11-15T04:26:40.072Z,988.56
2017-11-15T04:28:01.128Z,988.54
2017-11-15T04:28:40.146Z,988.48
2017-11-15T04:29:40.186Z,988.51
2017-11-15T04:30:40.230Z,988.54
2017-11-15T04:31:40.266Z,988.50
2017-11-15T04:32:40.306Z,988.55
2017-11-15T04:34:01.377Z,988.47
2017-11-15T04:34:40.387Z,988.48
2017-11-15T04:35:40.433Z,988.49
2017-11-15T04:36:40.466Z,988.49
2017-11-15T04:37:40.509Z,988.47
2017-11-15T04:38:40.547Z,988.48
2017-11-15T04:40:01.609Z,988.45
2017-11-15T04:40:40.629Z,988.50
2017-11-15T04:41:40.713Z,988.48
2017-11-15T04:42:40.711Z,988.46
2017-11-15T04:43:40.752Z,988.47
2017-11-15T04:44:40.788Z,988.48
2017-11-15T04:46:01.857Z,988.49
2017-11-15T04:46:40.870Z,988.53
2017-11-15T04:47:40.907Z,988.50
2017-11-15T04:48:40.950Z,988.51
2017-11-15T04:49:40.989Z,988.50
2017-11-15T04:50:41.030Z,988.56
2017-11-15T04:52:02.099Z,988.55
2017-11-15T04:52:41.111Z,988.55
2017-11-15T04:53:41.158Z,988.56
2017-11-15T04:54:41.197Z,988.53
2017-11-15T04:55:41.232Z,988.59
2017-11-15T04:56:41.275Z,988.53
2017-11-15T04:58:02.342Z,988.53
2017-11-15T04:58:41.352Z,988.54
2017-11-15T04:59:41.398Z,988.58
2017-11-15T05:00:41.430Z,988.52
2017-11-15T05:01:41.482Z,988.55
2017-11-15T05:02:41.516Z,988.62
2017-11-15T05:04:02.574Z,988.59
2017-11-15T05:04:41.596Z,988.60
2017-11-15T05:05:41.637Z,988.57
2017-11-15T05:06:41.679Z,988.64
2017-11-15T05:07:41.714Z,988.62
2017-11-15T05:08:41.770Z,988.62
2017-11-15T05:10:02.821Z,988.65
2017-11-15T05:10:41.847Z,988.68
2017-11-15T05:11:41.873Z,988.64
2017-11-15T05:12:41.919Z,988.64
2017-11-15T05:13:41.956Z,988.67
2017-11-15T05:14:41.994Z,988.66
2017-11-15T05:16:03.058Z,988.64
2017-11-15T05:16:42.080Z,988.68
2017-11-15T05:17:42.116Z,988.70
2017-11-15T05:18:42.160Z,988.70
2017-11-15T05:19:42.202Z,988.72
2017-11-15T05:20:42.235Z,988.70
2017-11-15T05:22:03.306Z,988.73
2017-11-15T05:22:42.325Z,988.70
2017-11-15T05:23:42.360Z,988.74
2017-11-15T05:24:42.396Z,988.70
2017-11-15T05:25:42.444Z,988.78
2017-11-15T05:26:42.481Z,988.72
2017-11-15T05:28:03.542Z,988.73
2017-11-15T05:28:42.559Z,988.73
2017-11-15T05:29:42.607Z,988.73
2017-11-15T05:30:42.645Z,988.67
2017-11-15T05:31:42.700Z,988.75
2017-11-15T05:32:42.724Z,988.67
2017-11-15T05:34:03.786Z,988.75
2017-11-15T05:34:42.802Z,988.75
2017-11-15T05:35:42.845Z,988.77
2017-11-15T05:36:42.882Z,988.84
2017-11-15T05:37:42.926Z,988.83
2017-11-15T05:38:42.965Z,988.85
2017-11-15T05:40:04.026Z,988.86
2017-11-15T05:40:43.221Z,988.87
2017-11-15T05:41:43.088Z,988.84
2017-11-15T05:42:43.124Z,988.85
2017-11-15T05:43:43.170Z,988.84
2017-11-15T05:44:43.204Z,988.87
2017-11-15T05:46:04.270Z,988.84
2017-11-15T05:46:43.286Z,988.81
2017-11-15T05:47:43.328Z,988.85
2017-11-15T05:48:43.365Z,988.89
2017-11-15T05:49:43.403Z,988.86
2017-11-15T05:50:43.449Z,988.85
2017-11-15T05:52:04.506Z,988.82
2017-11-15T05:52:43.526Z,988.83
2017-11-15T05:53:43.564Z,988.86
2017-11-15T05:54:43.610Z,988.85
2017-11-15T05:55:43.646Z,988.88
2017-11-15T05:56:43.687Z,988.85
2017-11-15T05:58:04.748Z,988.88
2017-11-15T05:58:43.766Z,988.92
2017-11-15T05:59:43.804Z,988.91
2017-11-15T06:00:43.846Z,988.94
2017-11-15T06:01:43.884Z,988.89
2017-11-15T06:02:44.015Z,988.99
2017-11-15T06:04:04.993Z,988.95
2017-11-15T06:04:44.005Z,988.91
2017-11-15T06:05:44.050Z,988.97
2017-11-15T06:06:44.085Z,988.98
2017-11-15T06:07:44.136Z,988.97
2017-11-15T06:08:44.165Z,988.97
2017-11-15T06:10:05.306Z,988.93
2017-11-15T06:10:44.290Z,988.93
2017-11-15T06:11:44.423Z,988.94
2017-11-15T06:12:44.436Z,988.97
2017-11-15T06:13:44.405Z,988.92
2017-11-15T06:14:44.433Z,988.94
2017-11-15T06:16:05.576Z,988.98
2017-11-15T06:16:44.590Z,988.96
2017-11-15T06:17:44.644Z,988.95
2017-11-15T06:18:44.625Z,989.00
2017-11-15T06:19:44.667Z,988.97
2017-11-15T06:20:44.688Z,989.01
2017-11-15T06:22:05.738Z,989.00
2017-11-15T06:22:44.778Z,989.03
2017-11-15T06:23:44.836Z,989.03
2017-11-15T06:24:44.833Z,988.99
2017-11-15T06:25:44.940Z,989.01
2017-11-15T06:26:44.886Z,989.03
2017-11-15T06:28:06.072Z,989.03
2017-11-15T06:28:44.971Z,989.02
2017-11-15T06:29:45.127Z,989.03
2017-11-15T06:30:45.170Z,989.06
2017-11-15T06:31:45.207Z,989.10
2017-11-15T06:32:45.205Z,989.04
2017-11-15T06:34:06.317Z,989.05
2017-11-15T06:34:45.305Z,989.06
2017-11-15T06:35:45.250Z,989.07
2017-11-15T06:36:45.374Z,989.09
2017-11-15T06:37:45.420Z,989.11
2017-11-15T06:38:45.379Z,989.08
2017-11-15T06:40:06.462Z,989.10
2017-11-15T06:40:45.567Z,989.10
2017-11-15T06:41:45.499Z,989.19
2017-11-15T06:42:45.533Z,989.13
2017-11-15T06:43:45.571Z,989.16
2017-11-15T06:44:45.615Z,989.19
2017-11-15T06:46:06.874Z,989.22
2017-11-15T06:46:45.918Z,989.16
2017-11-15T06:47:45.760Z,989.18
2017-11-15T06:48:45.777Z,989.21
2017-11-15T06:49:45.855Z,989.19
2017-11-15T06:50:45.908Z,989.18
2017-11-15T06:52:07.010Z,989.20
2017-11-15T06:52:45.937Z,989.24
2017-11-15T06:53:46.047Z,989.25
2017-11-15T06:54:46.010Z,989.25
2017-11-15T06:55:46.049Z,989.29
2017-11-15T06:56:46.091Z,989.22
2017-11-15T06:58:07.154Z,989.26
2017-11-15T06:58:46.176Z,989.29
2017-11-15T06:59:46.215Z,989.29
2017-11-15T07:00:46.250Z,989.31
2017-11-15T07:01:46.298Z,989.30
2017-11-15T07:02:46.335Z,989.22
2017-11-15T07:04:07.391Z,989.25
2017-11-15T07:04:46.448Z,989.20
2017-11-15T07:05:46.457Z,989.23
2017-11-15T07:06:46.502Z,989.26
2017-11-15T07:07:46.537Z,989.25
2017-11-15T07:08:46.682Z,989.26
2017-11-15T07:10:07.635Z,989.28
2017-11-15T07:10:46.659Z,989.31
2017-11-15T07:11:46.702Z,989.30
2017-11-15T07:12:46.739Z,989.30
2017-11-15T07:13:46.782Z,989.29
2017-11-15T07:14:46.818Z,989.35
2017-11-15T07:16:07.877Z,989.35
2017-11-15T07:16:47.941Z,989.31
2017-11-15T07:17:46.935Z,989.38
2017-11-15T07:18:46.980Z,989.43
2017-11-15T07:19:47.011Z,989.40
2017-11-15T07:20:47.060Z,989.40
2017-11-15T07:22:08.133Z,989.43
2017-11-15T07:22:47.150Z,989.42
2017-11-15T07:23:47.335Z,989.46
2017-11-15T07:24:47.221Z,989.43
2017-11-15T07:25:47.261Z,989.47
2017-11-15T07:26:47.310Z,989.44
2017-11-15T07:28:08.370Z,989.46
2017-11-15T07:28:47.392Z,989.46
2017-11-15T07:29:47.434Z,989.45
2017-11-15T07:30:47.462Z,989.46
2017-11-15T07:31:47.521Z,989.46
2017-11-15T07:32:47.554Z,989.47
2017-11-15T07:34:08.618Z,989.49
2017-11-15T07:34:47.644Z,989.51
2017-11-15T07:35:47.713Z,989.48
2017-11-15T07:36:47.715Z,989.51
2017-11-15T07:37:47.758Z,989.50
2017-11-15T07:38:47.796Z,989.51
2017-11-15T07:40:08.853Z,989.47
2017-11-15T07:40:47.881Z,989.54
2017-11-15T07:41:47.929Z,989.53
2017-11-15T07:42:47.950Z,989.57
2017-11-15T07:43:48.003Z,989.55
2017-11-15T07:44:48.306Z,989.54
2017-11-15T07:46:09.365Z,989.50
2017-11-15T07:46:48.298Z,989.53
2017-11-15T07:47:48.184Z,989.54
2017-11-15T07:48:48.203Z,989.52
2017-11-15T07:49:48.260Z,989.50
2017-11-15T07:50:48.298Z,989.53
2017-11-15T07:52:09.344Z,989.51
2017-11-15T07:52:48.366Z,989.52
2017-11-15T07:53:48.407Z,989.52
2017-11-15T07:54:48.448Z,989.56
2017-11-15T07:55:48.489Z,989.61
2017-11-15T07:56:49.581Z,989.59
2017-11-15T07:58:09.920Z,989.58
2017-11-15T07:58:48.625Z,989.58
2017-11-15T07:59:48.662Z,989.61
2017-11-15T08:00:48.699Z,989.63
2017-11-15T08:01:48.756Z,989.61
2017-11-15T08:02:48.783Z,989.60
2017-11-15T08:04:11.362Z,989.63
2017-11-15T08:04:48.874Z,989.63
2017-11-15T08:05:48.901Z,989.64
2017-11-15T08:06:48.954Z,989.65
2017-11-15T08:07:49.073Z,989.72
2017-11-15T08:08:49.126Z,989.69
2017-11-15T08:10:10.092Z,989.72
2017-11-15T08:10:49.106Z,989.69
2017-11-15T08:11:49.161Z,989.70
2017-11-15T08:12:49.198Z,989.67
2017-11-15T08:13:49.245Z,989.68
2017-11-15T08:14:49.284Z,989.67
2017-11-15T08:16:10.336Z,989.66
2017-11-15T08:16:49.477Z,989.63
2017-11-15T08:17:49.392Z,989.62
2017-11-15T08:18:49.447Z,989.67
2017-11-15T08:19:49.488Z,989.66
2017-11-15T08:20:49.575Z,989.67
2017-11-15T08:22:10.589Z,989.66
2017-11-15T08:22:49.617Z,989.72
2017-11-15T08:23:49.649Z,989.69
2017-11-15T08:24:49.682Z,989.73
2017-11-15T08:25:49.722Z,989.70
2017-11-15T08:26:49.941Z,989.70
2017-11-15T08:28:10.831Z,989.71
2017-11-15T08:28:49.853Z,989.71
2017-11-15T08:29:50.124Z,989.69
2017-11-15T08:30:49.934Z,989.71
2017-11-15T08:31:49.997Z,989.69
2017-11-15T08:32:50.017Z,989.62
2017-11-15T08:34:11.079Z,989.60
2017-11-15T08:34:50.097Z,989.57
2017-11-15T08:35:50.154Z,989.55
2017-11-15T08:36:50.205Z,989.58
2017-11-15T08:37:50.285Z,989.57
2017-11-15T08:38:50.261Z,989.59
2017-11-15T08:40:11.320Z,989.56
2017-11-15T08:40:50.393Z,989.57
2017-11-15T08:41:50.439Z,989.56
2017-11-15T08:42:50.465Z,989.55
2017-11-15T08:43:50.461Z,989.62
2017-11-15T08:44:50.513Z,989.59
2017-11-15T08:46:11.588Z,989.61
2017-11-15T08:46:50.588Z,989.61
2017-11-15T08:47:50.663Z,989.62
2017-11-15T08:48:50.676Z,989.57
2017-11-15T08:49:50.747Z,989.61
2017-11-15T08:50:50.757Z,989.63
2017-11-15T08:52:11.824Z,989.63
2017-11-15T08:52:50.837Z,989.68
2017-11-15T08:53:50.893Z,989.66
2017-11-15T08:54:50.931Z,989.67
2017-11-15T08:55:50.970Z,989.68
2017-11-15T08:56:51.016Z,989.67
2017-11-15T08:58:12.101Z,989.72
2017-11-15T08:58:51.702Z,989.70
2017-11-15T08:59:51.127Z,989.68
2017-11-15T09:00:51.176Z,989.69
2017-11-15T09:01:51.210Z,989.69
2017-11-15T09:02:51.258Z,989.67
2017-11-15T09:04:12.350Z,989.68
2017-11-15T09:04:51.344Z,989.71
2017-11-15T09:05:51.382Z,989.67
2017-11-15T09:06:51.421Z,989.65
2017-11-15T09:07:51.467Z,989.71
2017-11-15T09:08:51.504Z,989.73
2017-11-15T09:10:12.616Z,989.67
2017-11-15T09:10:51.619Z,989.70
2017-11-15T09:11:51.639Z,989.72
2017-11-15T09:12:51.847Z,989.69
2017-11-15T09:13:51.718Z,989.76
2017-11-15T09:14:51.893Z,989.78
2017-11-15T09:16:12.881Z,989.78
2017-11-15T09:16:51.848Z,989.76
2017-11-15T09:17:51.918Z,989.71
2017-11-15T09:18:51.922Z,989.75
2017-11-15T09:19:51.966Z,989.73
2017-11-15T09:20:52.013Z,989.72
2017-11-15T09:22:13.069Z,989.74
2017-11-15T09:22:52.085Z,989.75
2017-11-15T09:23:52.125Z,989.76
2017-11-15T09:24:52.163Z,989.73
2017-11-15T09:25:52.210Z,989.76
2017-11-15T09:26:52.254Z,989.77
2017-11-15T09:28:13.334Z,989.79
2017-11-15T09:28:52.332Z,989.80
2017-11-15T09:29:52.379Z,989.78
2017-11-15T09:30:52.423Z,989.85
2017-11-15T09:31:52.574Z,989.87
2017-11-15T09:32:52.504Z,989.79
2017-11-15T09:34:13.669Z,989.83
2017-11-15T09:34:52.600Z,989.86
2017-11-15T09:35:52.622Z,989.88
2017-11-15T09:36:52.746Z,989.92
2017-11-15T09:37:52.781Z,989.93
2017-11-15T09:38:52.818Z,989.92
2017-11-15T09:40:14.658Z,989.94
2017-11-15T09:40:53.004Z,989.96
2017-11-15T09:41:53.023Z,989.95
2017-11-15T09:42:53.066Z,989.96
2017-11-15T09:43:53.128Z,989.90
2017-11-15T09:44:53.190Z,989.88
2017-11-15T09:46:14.167Z,989.89
2017-11-15T09:46:53.367Z,989.86
2017-11-15T09:47:53.273Z,989.82
2017-11-15T09:48:53.262Z,989.80
2017-11-15T09:49:53.252Z,989.82
2017-11-15T09:50:53.363Z,989.76
2017-11-15T09:52:14.317Z,989.75
2017-11-15T09:52:53.326Z,989.76
2017-11-15T09:53:53.998Z,989.76
2017-11-15T09:54:53.629Z,989.75
2017-11-15T09:55:54.447Z,989.74
2017-11-15T09:56:53.655Z,989.74
2017-11-15T09:58:14.722Z,989.72
2017-11-15T09:58:53.804Z,989.75
2017-11-15T09:59:53.773Z,989.75
2017-11-15T10:00:53.829Z,989.77
2017-11-15T10:01:53.729Z,989.81
2017-11-15T10:02:53.748Z,989.79
2017-11-15T10:04:14.885Z,989.84
2017-11-15T10:04:53.900Z,989.86
2017-11-15T10:05:54.617Z,989.89
2017-11-15T10:06:53.980Z,989.88
2017-11-15T10:07:54.088Z,989.85
2017-11-15T10:08:55.399Z,989.90
2017-11-15T10:10:15.122Z,989.85
2017-11-15T10:10:54.234Z,989.81
2017-11-15T10:11:54.444Z,989.79
2017-11-15T10:12:54.318Z,989.80
2017-11-15T10:13:55.272Z,989.80
2017-11-15T10:14:54.481Z,989.82
2017-11-15T10:16:15.570Z,989.80
2017-11-15T10:16:54.451Z,989.81
2017-11-15T10:17:54.604Z,989.78
2017-11-15T10:18:54.604Z,989.76
2017-11-15T10:19:54.656Z,989.77
2017-11-15T10:20:54.700Z,989.78
2017-11-15T10:22:15.745Z,989.72
2017-11-15T10:22:54.864Z,989.77
2017-11-15T10:23:54.621Z,989.75
2017-11-15T10:24:54.671Z,989.69
2017-11-15T10:25:54.711Z,989.71
2017-11-15T10:26:54.759Z,989.66
2017-11-15T10:28:15.816Z,989.54
2017-11-15T10:28:54.837Z,989.69
2017-11-15T10:29:54.865Z,989.56
2017-11-15T10:30:54.916Z,989.59
2017-11-15T10:31:54.954Z,989.57
2017-11-15T10:32:54.999Z,989.53
2017-11-15T10:34:16.078Z,989.54
2017-11-15T10:34:55.082Z,989.53
2017-11-15T10:35:55.138Z,989.49
2017-11-15T10:36:55.178Z,989.46
2017-11-15T10:37:55.207Z,989.44
2017-11-15T10:38:55.249Z,989.48
2017-11-15T10:40:16.316Z,989.44
2017-11-15T10:40:55.324Z,989.45
2017-11-15T10:41:55.376Z,989.46
2017-11-15T10:42:55.428Z,989.41
2017-11-15T10:43:55.464Z,989.42
2017-11-15T10:44:55.494Z,989.45
2017-11-15T10:46:16.666Z,989.42
2017-11-15T10:46:55.585Z,989.41
2017-11-15T10:47:55.635Z,989.44
2017-11-15T10:48:55.679Z,989.46
2017-11-15T10:49:55.719Z,989.44
2017-11-15T10:50:55.747Z,989.39
2017-11-15T10:52:16.821Z,989.40
2017-11-15T10:52:55.841Z,989.44
2017-11-15T10:53:55.876Z,989.44
2017-11-15T10:54:55.928Z,989.42
2017-11-15T10:55:55.965Z,989.40
2017-11-15T10:56:56.002Z,989.43
2017-11-15T10:58:17.101Z,989.40
2017-11-15T10:58:56.097Z,989.42
2017-11-15T10:59:56.126Z,989.40
2017-11-15T11:00:56.180Z,989.41
2017-11-15T11:01:56.218Z,989.43
2017-11-15T11:02:57.237Z,989.41
2017-11-15T11:04:17.332Z,989.42
2017-11-15T11:04:56.343Z,989.39
2017-11-15T11:05:56.393Z,989.36
2017-11-15T11:06:56.432Z,989.42
2017-11-15T11:07:56.479Z,989.40
2017-11-15T11:08:56.515Z,989.42
2017-11-15T11:10:17.586Z,989.39
2017-11-15T11:10:56.600Z,989.43
2017-11-15T11:11:56.650Z,989.47
2017-11-15T11:12:56.689Z,989.47
2017-11-15T11:13:56.739Z,989.44
2017-11-15T11:14:56.796Z,989.43
2017-11-15T11:16:17.839Z,989.40
2017-11-15T11:16:58.236Z,989.44
2017-11-15T11:17:56.905Z,989.38
2017-11-15T11:18:56.948Z,989.40
2017-11-15T11:19:57.013Z,989.36
2017-11-15T11:20:57.044Z,989.36
2017-11-15T11:22:18.110Z,989.35
2017-11-15T11:22:57.125Z,989.38
2017-11-15T11:23:57.169Z,989.37
2017-11-15T11:24:57.210Z,989.34
2017-11-15T11:25:57.251Z,989.34
2017-11-15T11:26:57.321Z,989.31
2017-11-15T11:28:18.362Z,989.34
2017-11-15T11:28:57.385Z,989.29
2017-11-15T11:29:57.479Z,989.25
2017-11-15T11:30:57.474Z,989.30
2017-11-15T11:31:57.523Z,989.28
2017-11-15T11:32:57.565Z,989.28
2017-11-15T11:34:18.632Z,989.29
2017-11-15T11:34:57.698Z,989.25
2017-11-15T11:35:57.691Z,989.24
2017-11-15T11:36:57.735Z,989.25
2017-11-15T11:37:58.005Z,989.30
2017-11-15T11:38:57.843Z,989.28
2017-11-15T11:40:18.907Z,989.21
2017-11-15T11:40:57.926Z,989.22
2017-11-15T11:41:57.974Z,989.21
2017-11-15T11:42:58.226Z,989.21
2017-11-15T11:43:58.195Z,989.26
2017-11-15T11:44:58.104Z,989.16
2017-11-15T11:46:19.194Z,989.18
2017-11-15T11:46:58.184Z,989.19
2017-11-15T11:47:58.223Z,989.17
2017-11-15T11:48:58.456Z,989.19
2017-11-15T11:49:58.314Z,989.20
2017-11-15T11:50:58.363Z,989.15
2017-11-15T11:52:19.472Z,989.13
2017-11-15T11:52:58.452Z,989.16
2017-11-15T11:53:58.497Z,989.18
2017-11-15T11:54:59.773Z,989.12
2017-11-15T11:55:58.686Z,989.15
2017-11-15T11:56:58.627Z,989.16
2017-11-15T11:58:19.707Z,989.13
2017-11-15T11:58:58.730Z,989.15
2017-11-15T11:59:58.756Z,989.16
2017-11-15T12:00:58.802Z,989.16
2017-11-15T12:01:58.848Z,989.13
2017-11-15T12:02:58.903Z,989.12
2017-11-15T12:04:19.988Z,989.14
2017-11-15T12:04:58.979Z,989.20
2017-11-15T12:05:59.024Z,989.20
2017-11-15T12:06:59.084Z,989.15
2017-11-15T12:07:59.127Z,989.12
2017-11-15T12:08:59.167Z,989.13
2017-11-15T12:10:20.236Z,989.15
2017-11-15T12:10:59.282Z,989.08
2017-11-15T12:11:59.299Z,989.12
2017-11-15T12:12:59.364Z,989.06
2017-11-15T12:13:59.383Z,989.07
2017-11-15T12:14:59.445Z,989.07
2017-11-15T12:16:20.521Z,989.10
2017-11-15T12:16:59.516Z,989.06
2017-11-15T12:17:59.578Z,989.05
2017-11-15T12:18:59.608Z,989.10
2017-11-15T12:19:59.656Z,989.03
2017-11-15T12:20:59.692Z,989.03
2017-11-15T12:22:20.768Z,989.06
2017-11-15T12:22:59.790Z,989.06
2017-11-15T12:23:59.838Z,989.03
2017-11-15T12:24:59.873Z,989.01
2017-11-15T12:25:59.924Z,988.92
2017-11-15T12:26:59.981Z,988.98
2017-11-15T12:28:21.039Z,988.96
2017-11-15T12:29:00.059Z,988.91